Time;durP1;ratioP1;P1;durP2;ratioP2;P2;SDS_P1;SDS_P2;PMS_P1;PMS_P2;Temp;Humidity;BMP_temperature;BMP_pressure;BME280_temperature;BME280_humidity;BME280_pressure;Samples;Min_cycle;Max_cycle;Signal;HPM_P1;HPM_P2
2022/06/12 00:01:54;;;;;;;;;4.75;2.75;;;;;-142.59;100.00;56100.38;5073802;28;50234;-72
2022/06/12 00:04:20;;;;;;;;;1.00;1.00;;;;;-142.59;100.00;56100.38;5072885;28;49635;-72
2022/06/12 00:06:47;;;;;;;;;3.00;1.50;;;;;-142.59;100.00;56100.38;5073776;28;49658;-72
2022/06/12 00:09:13;;;;;;;;;3.50;3.00;;;;;-142.59;100.00;56100.38;5073712;28;49726;-72
2022/06/12 00:11:39;;;;;;;;;3.50;2.00;;;;;-142.59;100.00;56100.38;5073285;28;49714;-72
2022/06/12 00:14:05;;;;;;;;;3.00;2.00;;;;;-142.59;100.00;56100.38;5073795;28;49814;-72
2022/06/12 00:16:34;;;;;;;;;3.00;1.25;;;;;-142.59;100.00;56100.38;5073851;28;49853;-72
2022/06/12 00:19:00;;;;;;;;;2.25;2.25;;;;;-142.59;100.00;56100.38;5073302;28;49534;-72
2022/06/12 00:21:26;;;;;;;;;8.75;6.25;;;;;-142.59;100.00;56100.38;5073222;28;50616;-72
2022/06/12 00:23:55;;;;;;;;;3.00;3.00;;;;;-142.59;100.00;56100.38;5073178;28;49853;-72
2022/06/12 00:26:26;;;;;;;;;9.00;8.00;;;;;-142.59;100.00;56100.38;5072303;28;49705;-72
2022/06/12 00:29:16;;;;;;;;;11.00;10.00;;;;;-142.59;100.00;56100.38;5073797;28;49851;-72
2022/06/12 00:31:46;;;;;;;;;6.75;5.50;;;;;-142.59;100.00;56100.38;5066549;28;49619;-72
2022/06/12 00:34:13;;;;;;;;;12.75;9.25;;;;;-142.59;100.00;56100.38;5073094;28;49921;-72
2022/06/12 00:36:39;;;;;;;;;13.00;12.00;;;;;-142.59;100.00;56100.38;5073320;28;49878;-71
2022/06/12 00:39:06;;;;;;;;;12.50;11.50;;;;;-142.59;100.00;56100.38;5073065;28;49613;-72
2022/06/12 00:41:32;;;;;;;;;10.25;9.50;;;;;-142.59;100.00;56100.38;5073242;28;50693;-72
2022/06/12 00:43:58;;;;;;;;;6.50;6.50;;;;;-142.59;100.00;56100.38;5072620;28;49651;-72
2022/06/12 00:46:46;;;;;;;;;9.50;6.50;;;;;-142.59;100.00;56100.38;5073165;28;50013;-72
2022/06/12 00:49:24;;;;;;;;;4.50;4.50;;;;;-142.59;100.00;56100.38;5075325;28;50348;-72
2022/06/12 00:51:56;;;;;;;;;8.75;5.75;;;;;-142.59;100.00;56100.38;5076644;28;50567;-72
2022/06/12 00:54:22;;;;;;;;;8.25;8.25;;;;;-142.59;100.00;56100.38;5076239;28;49721;-72
2022/06/12 00:56:51;;;;;;;;;5.75;5.25;;;;;-142.59;100.00;56100.38;5075962;28;50077;-72
2022/06/12 00:59:34;;;;;;;;;5.25;5.25;;;;;-142.59;100.00;56100.38;5075437;27;49625;-72
2022/06/12 01:02:01;;;;;;;;;6.00;4.50;;;;;-142.59;100.00;56100.38;5075576;27;51457;-71
2022/06/12 01:07:15;;;;;;;;;5.00;5.00;;;;;-142.59;100.00;56100.38;5076554;28;49760;-72
2022/06/12 01:09:44;;;;;;;;;7.75;6.50;;;;;-142.59;100.00;56100.38;5076539;28;50017;-72
2022/06/12 01:12:14;;;;;;;;;7.00;5.75;;;;;-142.59;100.00;56100.38;5076203;28;50709;-72
2022/06/12 01:14:46;;;;;;;;;7.00;4.50;;;;;-142.59;100.00;56100.38;5075874;28;49858;-72
2022/06/12 01:17:13;;;;;;;;;4.00;4.00;;;;;-142.59;100.00;56100.38;5076308;28;49855;-72
2022/06/12 01:19:44;;;;;;;;;8.00;4.75;;;;;-142.59;100.00;56100.38;5056382;28;50004;-72
2022/06/12 01:22:37;;;;;;;;;4.00;3.50;;;;;-142.59;100.00;56100.38;5045132;28;50665;-73
2022/06/12 01:25:14;;;;;;;;;4.75;4.75;;;;;-142.59;100.00;56100.38;5076067;28;49932;-72
2022/06/12 01:27:58;;;;;;;;;5.25;3.50;;;;;-142.59;100.00;56100.38;5076430;27;49494;-72
2022/06/12 01:30:33;;;;;;;;;4.25;3.75;;;;;-142.59;100.00;56100.38;5075217;28;49951;-72
2022/06/12 01:33:30;;;;;;;;;3.00;3.00;;;;;-142.59;100.00;56100.38;5074921;28;52006;-72
2022/06/12 01:36:20;;;;;;;;;4.50;3.00;;;;;-142.59;100.00;56100.38;5075594;28;49908;-72
2022/06/12 01:39:16;;;;;;;;;3.00;2.50;;;;;-142.59;100.00;56100.38;5076037;27;49708;-72
2022/06/12 01:41:52;;;;;;;;;6.00;2.50;;;;;-142.59;100.00;56100.38;5071519;28;49833;-72
2022/06/12 01:44:29;;;;;;;;;5.00;4.00;;;;;-142.59;100.00;56100.38;5075693;27;49799;-72
2022/06/12 01:47:05;;;;;;;;;2.75;2.75;;;;;-142.59;100.00;56100.38;5075545;27;49692;-72
2022/06/12 01:49:49;;;;;;;;;4.50;3.75;;;;;-142.59;100.00;56100.38;5075515;28;49601;-72
2022/06/12 01:52:37;;;;;;;;;1.00;0.75;;;;;-142.59;100.00;56100.38;5075684;28;49739;-72
2022/06/12 01:55:14;;;;;;;;;4.00;3.00;;;;;-142.59;100.00;56100.38;5075765;28;50439;-72
2022/06/12 01:57:46;;;;;;;;;3.25;3.25;;;;;-142.59;100.00;56100.38;5075605;28;49955;-72
2022/06/12 02:00:18;;;;;;;;;2.00;2.00;;;;;-142.59;100.00;56100.38;5074444;28;49972;-72
2022/06/12 02:02:48;;;;;;;;;8.00;4.25;;;;;-142.59;100.00;56100.38;5075866;28;49800;-72
2022/06/12 02:05:25;;;;;;;;;4.00;3.00;;;;;-142.59;100.00;56100.38;5075745;28;50553;-72
2022/06/12 02:08:31;;;;;;;;;4.00;2.75;;;;;-142.59;100.00;56100.38;5075289;28;49601;-72
2022/06/12 02:14:10;;;;;;;;;2.00;2.00;;;;;-142.59;100.00;56100.38;5075067;27;49808;-72
2022/06/12 02:16:41;;;;;;;;;7.75;2.50;;;;;-142.59;100.00;56100.38;5075567;28;49850;-72
2022/06/12 02:19:15;;;;;;;;;1.50;1.50;;;;;-142.59;100.00;56100.38;5074952;28;49927;-72
2022/06/12 02:21:48;;;;;;;;;2.50;2.00;;;;;-142.59;100.00;56100.38;5075413;28;49827;-72
2022/06/12 02:24:27;;;;;;;;;3.00;3.00;;;;;-142.59;100.00;56100.38;5075392;28;49780;-81
2022/06/12 02:27:03;;;;;;;;;2.25;2.25;;;;;-142.59;100.00;56100.38;5074922;28;50469;-73
2022/06/12 02:29:44;;;;;;;;;4.00;1.25;;;;;-142.59;100.00;56100.38;5075518;28;49782;-72
2022/06/12 02:32:22;;;;;;;;;4.25;3.00;;;;;-142.59;100.00;56100.38;5075446;27;49865;-73
2022/06/12 02:34:54;;;;;;;;;3.50;2.25;;;;;-142.59;100.00;56100.38;5075123;27;49896;-73
2022/06/12 02:37:26;;;;;;;;;4.00;4.00;;;;;-142.59;100.00;56100.38;5074569;27;50673;-72
2022/06/12 02:40:08;;;;;;;;;5.00;3.75;;;;;-142.59;100.00;56100.38;5074776;28;49691;-72
2022/06/12 02:42:40;;;;;;;;;3.00;2.50;;;;;-142.59;100.00;56100.38;5075191;28;49588;-73
2022/06/12 02:45:17;;;;;;;;;3.50;2.25;;;;;-142.59;100.00;56100.38;5075192;28;49954;-72
2022/06/12 02:47:46;;;;;;;;;4.75;4.00;;;;;-142.59;100.00;56100.38;5074361;28;49824;-72
2022/06/12 02:50:15;;;;;;;;;4.50;3.00;;;;;-142.59;100.00;56100.38;5074738;28;49640;-73
2022/06/12 02:53:14;;;;;;;;;3.50;3.50;;;;;-142.59;100.00;56100.38;5074456;28;49989;-72
2022/06/12 02:55:58;;;;;;;;;3.50;3.50;;;;;-142.59;100.00;56100.38;5074879;28;49654;-72
2022/06/12 02:58:45;;;;;;;;;4.50;4.00;;;;;-142.59;100.00;56100.38;5074838;28;49779;-72
2022/06/12 03:01:15;;;;;;;;;3.00;3.00;;;;;-142.59;100.00;56100.38;5074509;28;49723;-73
2022/06/12 03:04:05;;;;;;;;;3.00;3.00;;;;;-142.59;100.00;56100.38;5074967;28;49842;-73
2022/06/12 03:06:31;;;;;;;;;3.00;3.00;;;;;-142.59;100.00;56100.38;5074919;28;49882;-73
2022/06/12 03:08:58;;;;;;;;;5.00;4.00;;;;;-142.59;100.00;56100.38;5074366;28;50604;-72
2022/06/12 03:11:36;;;;;;;;;2.50;2.50;;;;;-142.59;100.00;56100.38;5074494;28;49893;-73
2022/06/12 03:14:08;;;;;;;;;4.00;3.00;;;;;-142.59;100.00;56100.38;5074266;28;49905;-72
2022/06/12 03:16:37;;;;;;;;;2.00;2.00;;;;;-142.59;100.00;56100.38;5074853;27;49983;-72
2022/06/12 03:19:05;;;;;;;;;4.50;4.00;;;;;-142.59;100.00;56100.38;5073101;28;51907;-73
2022/06/12 03:21:52;;;;;;;;;1.25;1.25;;;;;-142.59;100.00;56100.38;5074477;27;49747;-73
2022/06/12 03:24:35;;;;;;;;;2.00;1.00;;;;;-142.59;100.00;56100.38;5073174;28;49895;-73
2022/06/12 03:27:26;;;;;;;;;3.75;3.25;;;;;-142.59;100.00;56100.38;5054292;28;49762;-73
2022/06/12 03:29:57;;;;;;;;;8.00;3.75;;;;;-142.59;100.00;56100.38;5054134;28;49785;-73
2022/06/12 03:32:22;;;;;;;;;3.00;3.00;;;;;-142.59;100.00;56100.38;5053978;28;49641;-73
2022/06/12 03:34:58;;;;;;;;;2.75;2.00;;;;;-142.59;100.00;56100.38;5054277;28;49799;-73
2022/06/12 03:37:47;;;;;;;;;5.75;5.75;;;;;-142.59;100.00;56100.38;5054040;28;49750;-73
2022/06/12 03:40:30;;;;;;;;;4.25;2.50;;;;;-142.59;100.00;56100.38;5052604;28;50474;-73
2022/06/12 03:43:03;;;;;;;;;5.00;2.25;;;;;-142.59;100.00;56100.38;5063837;28;49877;-73
2022/06/12 03:45:45;;;;;;;;;2.25;2.00;;;;;-142.59;100.00;56100.38;5073867;28;49803;-73
2022/06/12 03:48:29;;;;;;;;;5.50;3.25;;;;;-142.59;100.00;56100.38;5074355;28;49604;-72
2022/06/12 03:51:39;;;;;;;;;3.75;2.25;;;;;-142.59;100.00;56100.38;5073687;28;50952;-72
2022/06/12 03:54:13;;;;;;;;;3.50;3.50;;;;;-142.59;100.00;56100.38;5047794;27;49964;-72
2022/06/12 03:59:45;;;;;;;;;3.25;3.25;;;;;-142.59;100.00;56100.38;5074157;28;49784;-72
2022/06/12 04:02:15;;;;;;;;;5.25;4.50;;;;;-142.59;100.00;56100.38;5073749;28;49774;-73
2022/06/12 04:04:43;;;;;;;;;5.75;3.50;;;;;-142.59;100.00;56100.38;5073602;28;49628;-72
2022/06/12 04:07:12;;;;;;;;;2.00;2.00;;;;;-142.59;100.00;56100.38;5073416;28;49713;-73
2022/06/12 04:09:43;;;;;;;;;2.00;1.00;;;;;-142.59;100.00;56100.38;5073976;28;49824;-73
2022/06/12 04:12:31;;;;;;;;;4.50;2.00;;;;;-142.59;100.00;56100.38;5073430;28;51371;-73
2022/06/12 04:15:04;;;;;;;;;3.50;2.25;;;;;-142.59;100.00;56100.38;5073638;27;49934;-72
2022/06/12 04:17:29;;;;;;;;;4.00;3.00;;;;;-142.59;100.00;56100.38;5073821;27;49723;-73
2022/06/12 04:20:03;;;;;;;;;2.00;2.00;;;;;-142.59;100.00;56100.38;5073398;28;49865;-72
2022/06/12 04:22:43;;;;;;;;;3.50;3.25;;;;;-142.59;100.00;56100.38;5073064;28;51490;-72
2022/06/12 04:25:37;;;;;;;;;2.25;2.25;;;;;-142.59;100.00;56100.38;5073258;27;49628;-73
2022/06/12 04:28:06;;;;;;;;;4.25;3.00;;;;;-142.59;100.00;56100.38;5073703;28;49643;-73
2022/06/12 04:30:38;;;;;;;;;4.75;4.75;;;;;-142.59;100.00;56100.38;5073796;28;49775;-73
2022/06/12 04:33:12;;;;;;;;;2.75;1.00;;;;;-142.59;100.00;56100.38;5073487;28;50461;-72
2022/06/12 04:35:44;;;;;;;;;2.75;1.50;;;;;-142.59;100.00;56100.38;5053144;28;49627;-72
2022/06/12 04:38:10;;;;;;;;;3.00;2.25;;;;;-142.59;100.00;56100.38;5053158;28;49827;-73
2022/06/12 04:40:36;;;;;;;;;3.00;3.00;;;;;-142.59;100.00;56100.38;5053302;28;49807;-73
2022/06/12 04:43:02;;;;;;;;;2.50;2.50;;;;;-142.59;100.00;56100.38;5053066;28;50327;-72
2022/06/12 04:45:27;;;;;;;;;3.00;3.00;;;;;-142.59;100.00;56100.38;5034406;28;49728;-73
2022/06/12 04:47:53;;;;;;;;;3.25;3.25;;;;;-142.59;100.00;56100.38;5071396;28;49815;-73
2022/06/12 04:50:18;;;;;;;;;4.00;4.00;;;;;-142.59;100.00;56100.38;5073473;28;49551;-73
2022/06/12 04:52:43;;;;;;;;;2.75;2.75;;;;;-142.59;100.00;56100.38;5072761;28;50481;-73
2022/06/12 04:55:09;;;;;;;;;2.50;2.50;;;;;-142.59;100.00;56100.38;5073146;28;49704;-73
2022/06/12 04:57:34;;;;;;;;;5.75;4.75;;;;;-142.59;100.00;56100.38;5073489;27;49807;-72
2022/06/12 04:59:59;;;;;;;;;5.50;4.00;;;;;-142.59;100.00;56100.38;5073318;27;49827;-72
2022/06/12 05:02:25;;;;;;;;;4.00;3.50;;;;;-142.59;100.00;56100.38;5073040;28;51312;-72
2022/06/12 05:04:51;;;;;;;;;3.25;3.25;;;;;-142.59;100.00;56100.38;5073016;27;49561;-72
2022/06/12 05:07:16;;;;;;;;;4.00;3.00;;;;;-142.59;100.00;56100.38;5072905;28;49762;-72
2022/06/12 05:09:43;;;;;;;;;5.00;5.00;;;;;-142.59;100.00;56100.38;5073424;28;49635;-72
2022/06/12 05:12:12;;;;;;;;;5.25;5.25;;;;;-142.59;100.00;56100.38;5072705;28;50896;-73
2022/06/12 05:14:37;;;;;;;;;5.00;5.00;;;;;-142.59;100.00;56100.38;5073054;28;49628;-73
2022/06/12 05:17:06;;;;;;;;;7.00;5.25;;;;;-142.59;100.00;56100.38;5073073;27;49967;-73
2022/06/12 05:19:35;;;;;;;;;4.25;4.25;;;;;-142.59;100.00;56100.38;5071807;28;49874;-73
2022/06/12 05:22:02;;;;;;;;;1.75;1.75;;;;;-142.59;100.00;56100.38;5072509;28;52108;-73
2022/06/12 05:24:27;;;;;;;;;5.00;4.00;;;;;-142.59;100.00;56100.38;5072735;28;49732;-73
2022/06/12 05:26:54;;;;;;;;;5.25;3.00;;;;;-142.59;100.00;56100.38;5072267;28;49747;-73
2022/06/12 05:29:31;;;;;;;;;4.50;4.00;;;;;-142.59;100.00;56100.38;5073011;28;49982;-73
2022/06/12 05:31:57;;;;;;;;;5.25;3.75;;;;;-142.59;100.00;56100.38;5071859;28;50649;-73
2022/06/12 05:34:25;;;;;;;;;7.00;4.50;;;;;-142.59;100.00;56100.38;5072994;28;49758;-73
2022/06/12 05:36:51;;;;;;;;;5.00;3.00;;;;;-142.59;100.00;56100.38;5075955;28;49692;-73
2022/06/12 05:39:17;;;;;;;;;5.00;4.00;;;;;-142.59;100.00;56100.38;5076178;28;49832;-73
2022/06/12 05:41:42;;;;;;;;;5.00;4.00;;;;;-142.59;100.00;56100.38;5076087;28;50022;-73
2022/06/12 05:44:08;;;;;;;;;7.50;5.50;;;;;-142.59;100.00;56100.38;5075674;28;49920;-73
2022/06/12 05:46:34;;;;;;;;;3.25;3.25;;;;;-142.59;100.00;56100.38;5075995;28;49542;-73
2022/06/12 05:48:59;;;;;;;;;5.00;5.00;;;;;-142.59;100.00;56100.38;5075952;28;49874;-73
2022/06/12 05:51:25;;;;;;;;;5.25;4.00;;;;;-142.59;100.00;56100.38;5066731;28;49819;-73
2022/06/12 05:53:50;;;;;;;;;4.25;2.00;;;;;-142.59;100.00;56100.38;5055916;28;49927;-73
2022/06/12 05:56:19;;;;;;;;;5.00;2.75;;;;;-142.59;100.00;56100.38;5076075;28;50040;-73
2022/06/12 05:58:46;;;;;;;;;5.00;2.50;;;;;-142.59;100.00;56100.38;5075506;27;50088;-73
2022/06/12 06:01:14;;;;;;;;;7.25;4.25;;;;;-142.59;100.00;56100.38;5075332;28;49677;-72
2022/06/12 06:03:39;;;;;;;;;2.50;1.25;;;;;-142.59;100.00;56100.38;5075523;27;49733;-72
2022/06/12 06:06:07;;;;;;;;;2.25;2.25;;;;;-142.59;100.00;56100.38;5075555;28;50050;-73
2022/06/12 06:08:32;;;;;;;;;2.75;2.75;;;;;-142.59;100.00;56100.38;5075385;28;49847;-72
2022/06/12 06:10:57;;;;;;;;;3.75;3.50;;;;;-142.59;100.00;56100.38;5075223;28;50312;-73
2022/06/12 06:13:23;;;;;;;;;6.00;3.25;;;;;-142.59;100.00;56100.38;5075488;28;49841;-72
2022/06/12 06:15:50;;;;;;;;;2.00;2.00;;;;;-142.59;100.00;56100.38;5075145;28;49724;-72
2022/06/12 06:18:16;;;;;;;;;3.50;3.50;;;;;-142.59;100.00;56100.38;5075806;27;49764;-73
2022/06/12 06:20:41;;;;;;;;;2.50;2.50;;;;;-142.59;100.00;56100.38;5074990;28;50534;-73
2022/06/12 06:23:08;;;;;;;;;6.75;4.75;;;;;-142.59;100.00;56100.38;5075343;28;49714;-73
2022/06/12 06:25:35;;;;;;;;;6.00;3.00;;;;;-142.59;100.00;56100.38;5075463;28;49831;-74
2022/06/12 06:28:01;;;;;;;;;5.50;3.00;;;;;-142.59;100.00;56100.38;5075365;27;49760;-74
2022/06/12 06:30:27;;;;;;;;;4.00;3.50;;;;;-142.59;100.00;56100.38;5074813;28;49873;-72
2022/06/12 06:32:53;;;;;;;;;11.25;3.25;;;;;-142.59;100.00;56100.38;5075009;28;49753;-70
2022/06/12 06:35:20;;;;;;;;;6.25;4.75;;;;;-142.59;100.00;56100.38;5075190;28;49638;-70
2022/06/12 06:37:46;;;;;;;;;0.75;0.75;;;;;-142.59;100.00;56100.38;5075281;28;50002;-72
2022/06/12 06:40:13;;;;;;;;;4.00;4.00;;;;;-142.59;100.00;56100.38;5071640;28;52811;-72
2022/06/12 06:42:39;;;;;;;;;10.00;8.25;;;;;-142.59;100.00;56100.38;5074882;28;50030;-72
2022/06/12 06:47:50;;;;;;;;;4.00;3.00;;;;;-142.59;100.00;56100.38;5073519;28;49807;-73
2022/06/12 06:50:17;;;;;;;;;4.75;4.00;;;;;-142.59;100.00;56100.38;5074645;27;50421;-73
2022/06/12 06:52:42;;;;;;;;;5.50;4.00;;;;;-142.59;100.00;56100.38;5074564;27;49815;-72
2022/06/12 06:55:09;;;;;;;;;3.75;3.75;;;;;-142.59;100.00;56100.38;5074010;28;49782;-67
2022/06/12 06:57:37;;;;;;;;;2.75;2.75;;;;;-142.59;100.00;56100.38;5075016;28;49538;-73
2022/06/12 07:00:05;;;;;;;;;3.00;3.00;;;;;-142.59;100.00;56100.38;5056089;28;52463;-65
2022/06/12 07:02:31;;;;;;;;;4.75;3.00;;;;;-142.59;100.00;56100.38;5075883;28;49688;-80
2022/06/12 07:04:58;;;;;;;;;4.50;3.75;;;;;-142.59;100.00;56100.38;5074223;28;49854;-72
2022/06/12 07:07:23;;;;;;;;;5.75;4.50;;;;;-142.59;100.00;56100.38;5074616;28;49922;-71
2022/06/12 07:09:48;;;;;;;;;4.25;3.75;;;;;-142.59;100.00;56100.38;5073832;28;50172;-69
2022/06/12 07:12:14;;;;;;;;;6.00;6.00;;;;;-142.59;100.00;56100.38;5073791;28;49696;-70
2022/06/12 07:14:39;;;;;;;;;4.00;3.75;;;;;-142.59;100.00;56100.38;5039272;28;49793;-69
2022/06/12 07:17:05;;;;;;;;;5.00;4.00;;;;;-142.59;100.00;56100.38;5075041;27;49701;-70
2022/06/12 07:19:30;;;;;;;;;4.25;4.25;;;;;-142.59;100.00;56100.38;5074013;28;50530;-66
2022/06/12 07:21:56;;;;;;;;;6.50;2.50;;;;;-142.59;100.00;56100.38;5074501;27;49775;-65
2022/06/12 07:24:21;;;;;;;;;8.00;4.75;;;;;-142.59;100.00;56100.38;5074201;28;49699;-65
2022/06/12 07:26:48;;;;;;;;;8.00;6.00;;;;;-142.59;100.00;56100.38;5074503;28;49760;-66
2022/06/12 07:29:21;;;;;;;;;5.75;4.75;;;;;-142.59;100.00;56100.38;5073543;28;49717;-65
2022/06/12 07:31:48;;;;;;;;;3.50;3.50;;;;;-142.59;100.00;56100.38;5073188;28;49571;-65
2022/06/12 07:34:14;;;;;;;;;5.50;5.00;;;;;-142.59;100.00;56100.38;5074277;28;49666;-61
2022/06/12 07:36:42;;;;;;;;;2.75;2.50;;;;;-142.59;100.00;56100.38;5070075;27;49863;-64
2022/06/12 07:39:13;;;;;;;;;4.50;3.50;;;;;-142.59;100.00;56100.38;5063665;28;50947;-64
2022/06/12 07:41:38;;;;;;;;;8.50;6.00;;;;;-142.59;100.00;56100.38;5073233;27;49771;-67
2022/06/12 07:44:05;;;;;;;;;3.25;1.75;;;;;-142.59;100.00;56100.38;5072599;28;49728;-65
2022/06/12 07:46:31;;;;;;;;;3.00;3.00;;;;;-142.59;100.00;56100.38;5074111;28;49672;-66
2022/06/12 07:48:56;;;;;;;;;6.00;5.00;;;;;-142.59;100.00;56100.38;5072568;28;50398;-64
2022/06/12 07:51:22;;;;;;;;;2.50;2.50;;;;;-142.59;100.00;56100.38;5073538;28;49802;-65
2022/06/12 07:53:50;;;;;;;;;4.25;4.25;;;;;-142.59;100.00;56100.38;5073796;28;49726;-65
2022/06/12 07:56:17;;;;;;;;;5.00;3.00;;;;;-142.59;100.00;56100.38;5073521;28;49791;-65
2022/06/12 07:58:43;;;;;;;;;5.00;3.00;;;;;-142.59;100.00;56100.38;5072036;28;52473;-65
2022/06/12 08:01:10;;;;;;;;;3.25;2.25;;;;;-142.59;100.00;56100.38;5072741;28;49705;-64
2022/06/12 08:03:36;;;;;;;;;3.50;3.25;;;;;-142.59;100.00;56100.38;5073723;27;49615;-65
2022/06/12 08:06:02;;;;;;;;;6.00;3.00;;;;;-142.59;100.00;56100.38;5073418;28;49831;-66
2022/06/12 08:08:28;;;;;;;;;2.75;2.75;;;;;-142.59;100.00;56100.38;5054630;28;51302;-65
2022/06/12 08:10:55;;;;;;;;;3.75;3.75;;;;;-142.59;100.00;56100.38;5074383;27;49814;-67
2022/06/12 08:13:23;;;;;;;;;2.75;2.75;;;;;-142.59;100.00;56100.38;5085025;27;49596;-65
2022/06/12 08:15:50;;;;;;;;;2.00;2.00;;;;;-142.59;100.00;56100.38;5073520;28;49551;-65
2022/06/12 08:18:17;;;;;;;;;2.25;2.25;;;;;-142.59;100.00;56100.38;5086980;27;49794;-64
2022/06/12 08:20:45;;;;;;;;;3.00;2.25;;;;;-142.59;100.00;56100.38;5093946;27;49673;-64
2022/06/12 08:25:59;;;;;;;;;1.75;1.00;;;;;-142.59;100.00;56100.38;5093355;27;49742;-66
2022/06/12 08:28:28;;;;;;;;;2.50;2.50;;;;;-142.59;100.00;56100.38;5073291;27;51021;-65
2022/06/12 08:30:54;;;;;;;;;1.75;1.75;;;;;-142.59;100.00;56100.38;5081509;27;49852;-66
2022/06/12 08:33:20;;;;;;;;;3.50;3.00;;;;;-142.59;100.00;56100.38;5091244;27;49700;-69
2022/06/12 08:35:46;;;;;;;;;3.25;1.00;;;;;-142.59;100.00;56100.38;5092873;27;49798;-70
2022/06/12 08:38:12;;;;;;;;;1.25;1.25;;;;;-142.59;100.00;56100.38;5071988;28;50667;-71
2022/06/12 08:40:43;;;;;;;;;2.50;2.00;;;;;-142.59;100.00;56100.38;5072108;28;49842;-68
2022/06/12 08:43:38;;;;;;;;;3.00;3.00;;;;;-142.59;100.00;56100.38;5072693;28;49956;-70
2022/06/12 08:46:13;;;;;;;;;3.75;1.75;;;;;-142.59;100.00;56100.38;5073940;27;50021;-68
2022/06/12 08:48:51;;;;;;;;;2.75;2.50;;;;;-142.59;100.00;56100.38;5074714;27;49885;-70
2022/06/12 08:51:42;;;;;;;;;2.00;2.00;;;;;-142.59;100.00;56100.38;5084117;27;49875;-69
2022/06/12 08:54:14;;;;;;;;;3.25;3.25;;;;;-142.59;100.00;56100.38;5080158;27;49966;-70
2022/06/12 08:56:49;;;;;;;;;2.00;2.00;;;;;-142.59;100.00;56100.38;5074107;27;49741;-69
2022/06/12 08:59:34;;;;;;;;;3.25;2.00;;;;;-142.59;100.00;56100.38;5066500;28;49815;-69
2022/06/12 09:02:03;;;;;;;;;2.00;2.00;;;;;-142.59;100.00;56100.38;5072393;28;49743;-75
2022/06/12 09:04:29;;;;;;;;;2.75;2.00;;;;;-142.59;100.00;56100.38;5055601;28;49801;-69
2022/06/12 09:07:05;;;;;;;;;3.00;3.00;;;;;-142.59;100.00;56100.38;5060367;27;50062;-73
2022/06/12 09:09:50;;;;;;;;;2.00;2.00;;;;;-142.59;100.00;56100.38;5080603;27;50693;-68
2022/06/12 09:12:24;;;;;;;;;2.00;2.00;;;;;-142.59;100.00;56100.38;5094606;27;49511;-70
2022/06/12 09:15:01;;;;;;;;;3.00;3.00;;;;;-142.59;100.00;56100.38;5085841;27;49814;-69
2022/06/12 09:17:39;;;;;;;;;2.50;2.00;;;;;-142.59;100.00;56100.38;5097021;27;49726;-68
2022/06/12 09:20:14;;;;;;;;;2.00;2.00;;;;;-142.59;100.00;56100.38;5078183;27;52049;-68
2022/06/12 09:22:52;;;;;;;;;2.50;2.50;;;;;-142.59;100.00;56100.38;5077706;27;49613;-68
2022/06/12 09:25:47;;;;;;;;;2.00;1.00;;;;;-142.59;100.00;56100.38;5096531;27;50033;-69
2022/06/12 09:28:43;;;;;;;;;1.00;1.00;;;;;-142.59;100.00;56100.38;5092517;27;49801;-72
2022/06/12 09:31:24;;;;;;;;;1.00;1.00;;;;;-142.59;100.00;56100.38;5063407;27;49984;-80
2022/06/12 09:34:25;;;;;;;;;3.00;2.00;;;;;-142.59;100.00;56100.38;5077739;27;49696;-70
2022/06/12 09:36:56;;;;;;;;;3.25;3.25;;;;;-142.59;100.00;56100.38;5055417;28;49867;-72
2022/06/12 09:39:46;;;;;;;;;3.25;3.25;;;;;-142.59;100.00;56100.38;5069670;27;49972;-70
2022/06/12 09:42:21;;;;;;;;;2.50;2.25;;;;;-142.59;100.00;56100.38;5067575;27;51837;-73
2022/06/12 09:44:51;;;;;;;;;2.00;1.00;;;;;-142.59;100.00;56100.38;5061904;27;49796;-76
2022/06/12 09:47:26;;;;;;;;;2.00;2.00;;;;;-142.59;100.00;56100.38;5074903;27;49667;-80
2022/06/12 09:50:09;;;;;;;;;1.50;1.50;;;;;-142.59;100.00;56100.38;5058296;28;49798;-81
2022/06/12 09:53:01;;;;;;;;;0.25;0.25;;;;;-142.59;100.00;56100.38;5077245;27;49682;-78
2022/06/12 09:55:48;;;;;;;;;1.00;1.00;;;;;-142.59;100.00;56100.38;5060262;28;49673;-79
2022/06/12 09:58:29;;;;;;;;;4.00;1.00;;;;;-142.59;100.00;56100.38;5071002;27;49944;-79
2022/06/12 10:01:16;;;;;;;;;1.75;1.75;;;;;-142.59;100.00;56100.38;5074459;28;49601;-78
2022/06/12 10:03:47;;;;;;;;;1.00;1.00;;;;;-142.59;100.00;56100.38;5071804;27;50908;-63
2022/06/12 10:06:22;;;;;;;;;1.00;1.00;;;;;-142.59;100.00;56100.38;5089886;27;49649;-71
2022/06/12 10:09:14;;;;;;;;;2.00;2.00;;;;;-142.59;100.00;56100.38;5085159;27;49998;-69
2022/06/12 10:12:02;;;;;;;;;1.25;1.25;;;;;-142.59;100.00;56100.38;5045250;28;49830;-70
2022/06/12 10:14:37;;;;;;;;;5.50;3.00;;;;;-142.59;100.00;56100.38;5055070;28;49651;-71
2022/06/12 10:17:05;;;;;;;;;3.25;2.25;;;;;-142.59;100.00;56100.38;5061968;27;49822;-70
2022/06/12 10:19:35;;;;;;;;;4.50;4.25;;;;;-142.59;100.00;56100.38;5093414;27;50286;-69
2022/06/12 10:22:10;;;;;;;;;4.00;2.75;;;;;-142.59;100.00;56100.38;5088344;27;49823;-70
2022/06/12 10:24:35;;;;;;;;;8.25;6.00;;;;;-142.59;100.00;56100.38;5074822;27;50574;-69
2022/06/12 10:27:07;;;;;;;;;5.50;5.50;;;;;-142.59;100.00;56100.38;5075495;28;49978;-70
2022/06/12 10:29:47;;;;;;;;;2.25;2.25;;;;;-142.59;100.00;56100.38;5075677;27;49894;-71
2022/06/12 10:32:23;;;;;;;;;5.50;5.50;;;;;-142.59;100.00;56100.38;5075021;27;49739;-71
2022/06/12 10:34:49;;;;;;;;;5.50;3.50;;;;;-142.59;100.00;56100.38;5075050;28;49663;-71
2022/06/12 10:37:28;;;;;;;;;4.00;4.00;;;;;-142.59;100.00;56100.38;5077064;27;49881;-70
2022/06/12 10:40:03;;;;;;;;;3.25;3.00;;;;;-142.59;100.00;56100.38;5074949;28;49852;-71
2022/06/12 10:42:52;;;;;;;;;3.00;3.00;;;;;-142.59;100.00;56100.38;5083693;27;49757;-72
2022/06/12 10:45:24;;;;;;;;;4.00;2.25;;;;;-142.59;100.00;56100.38;5078683;27;50492;-71
2022/06/12 10:47:51;;;;;;;;;2.75;2.50;;;;;-142.59;100.00;56100.38;5074889;27;49653;-75
2022/06/12 10:50:29;;;;;;;;;5.00;4.00;;;;;-142.59;100.00;56100.38;5074912;28;50063;-70
2022/06/12 10:53:10;;;;;;;;;4.50;4.25;;;;;-142.59;100.00;56100.38;5074607;27;49719;-78
2022/06/12 10:55:50;;;;;;;;;3.00;3.00;;;;;-142.59;100.00;56100.38;5073423;28;51021;-72
2022/06/12 10:58:49;;;;;;;;;7.75;6.00;;;;;-142.59;100.00;56100.38;5074508;28;49859;-75
2022/06/12 11:01:36;;;;;;;;;3.50;3.25;;;;;-142.59;100.00;56100.38;5074668;27;49471;-76
2022/06/12 11:04:39;;;;;;;;;4.00;2.50;;;;;-142.59;100.00;56100.38;5061662;28;49863;-79
2022/06/12 11:07:32;;;;;;;;;2.00;2.00;;;;;-142.59;100.00;56100.38;5058631;27;50986;-70
2022/06/12 11:10:08;;;;;;;;;2.25;1.50;;;;;-142.59;100.00;56100.38;5085065;27;49886;-74
2022/06/12 11:12:58;;;;;;;;;3.25;3.25;;;;;-142.59;100.00;56100.38;5068208;27;49913;-72
2022/06/12 11:15:34;;;;;;;;;1.50;1.50;;;;;-142.59;100.00;56100.38;5056977;28;49982;-72
2022/06/12 11:18:16;;;;;;;;;2.00;2.00;;;;;-142.59;100.00;56100.38;5073276;27;50642;-72
2022/06/12 11:21:23;;;;;;;;;4.25;3.00;;;;;-142.59;100.00;56100.38;5092242;27;49765;-73
2022/06/12 11:24:08;;;;;;;;;5.25;3.75;;;;;-142.59;100.00;56100.38;5074519;27;49958;-70
2022/06/12 11:26:59;;;;;;;;;5.50;5.00;;;;;-142.59;100.00;56100.38;5074944;27;50010;-72
2022/06/12 11:29:37;;;;;;;;;13.25;6.50;;;;;-142.59;100.00;56100.38;5056064;28;50334;-72
2022/06/12 11:32:14;;;;;;;;;13.00;12.00;;;;;-142.59;100.00;56100.38;5070809;28;49904;-71
2022/06/12 11:35:07;;;;;;;;;7.50;6.50;;;;;-142.59;100.00;56100.38;5074402;28;49767;-75
2022/06/12 11:37:32;;;;;;;;;10.00;8.50;;;;;-142.59;100.00;56100.38;5074553;28;49752;-75
2022/06/12 11:40:10;;;;;;;;;11.25;9.50;;;;;-142.59;100.00;56100.38;5080371;27;50353;-72
2022/06/12 11:42:35;;;;;;;;;3.00;3.00;;;;;-142.59;100.00;56100.38;5092966;27;49885;-71
2022/06/12 11:45:03;;;;;;;;;3.50;3.50;;;;;-142.59;100.00;56100.38;5094609;27;50477;-74
2022/06/12 11:47:53;;;;;;;;;4.00;3.00;;;;;-142.59;100.00;56100.38;5073053;27;49954;-72
2022/06/12 11:50:37;;;;;;;;;6.00;3.75;;;;;-142.59;100.00;56100.38;5075840;27;51758;-75
2022/06/12 11:53:02;;;;;;;;;4.00;3.00;;;;;-142.59;100.00;56100.38;5094420;27;49670;-75